Varnadiep — PBIB — position and weather

sailwx.info

Track history (hours):
 
Tides and Currents Weather Stations Pressure Air Temp Water Temp Dewpoint Dewpoint Depression Visibility Wind Speed Wind Dir Waves Ship Positions

Varnadiep

Last reported at 2015-Jul-29 12:24 UTC. Time now 2015-Jul-30 12:12 UTC.
Position N 34°47' W 006°49'.

Length 118 m; draft 7.4 m.

Type: Cargo ship. MMSI: 244729000.

Date/timePositionNaut miles runAvg speedWind from/ knotsBaromVisibWave heightAir tempDewpointWater temp
2015-Jul-29 12:24N 34°47' W 006°49'4911.8
2015-Jul-29 08:15N 34°05' W 007°21'27 0.7
2015-Jul-27 19:27N 33°40' W 007°32'0 0.0
2015-Jul-27 17:17N 33°40' W 007°32'0 0.0
2015-Jul-26 23:18N 33°40' W 007°32'114 2.7
2015-Jul-25 05:09N 35°24' W 008°29'1011.9
2015-Jul-25 04:20N 35°33' W 008°34'2411.9
2015-Jul-25 02:20N 35°55' W 008°46'2212.0
2015-Jul-25 00:33N 36°15' W 008°56'1211.8
2015-Jul-24 23:32N 36°26' W 009°02'1211.0
2015-Jul-24 22:28N 36°33' W 009°14'2411.4
2015-Jul-24 20:22N 36°50' W 009°34'1011.7
2015-Jul-24 19:33N 36°60' W 009°37'1212.2
2015-Jul-24 18:33N 37°11' W 009°40'1212.2
2015-Jul-24 17:33N 37°24' W 009°43'1212.0
2015-Jul-24 16:33N 37°35' W 009°46'1211.8
2015-Jul-24 15:33N 37°47' W 009°51'2512.2
2015-Jul-24 13:32N 38°11' W 009°57'1212.0
2015-Jul-24 12:33N 38°22' W 010°01'1211.9
2015-Jul-24 11:33N 38°34' W 010°04'1211.8
2015-Jul-24 10:33N 38°45' W 010°06'1212.1
2015-Jul-24 09:33N 38°57' W 010°06'1212.0
2015-Jul-24 08:33N 39°09' W 010°06'1111.0
2015-Jul-24 07:33N 39°20' W 010°06'  
2015-Jul-21 02:28N 50°35' E 000°13'1010.6
2015-Jul-21 01:33N 50°37' E 000°27'10 9.7
2015-Jul-21 00:33N 50°42' E 000°41'9 9.5
2015-Jul-20 23:33N 50°47' E 000°53'1110.4
2015-Jul-20 22:33N 50°53' E 001°07'1212.2
2015-Jul-20 21:33N 51°01' E 001°22'1312.9
2015-Jul-20 20:33N 51°09' E 001°37'1211.7
2015-Jul-20 19:33N 51°18' E 001°49'1010.4
2015-Jul-20 18:33N 51°27' E 001°57'10 9.7
2015-Jul-20 17:33N 51°35' E 002°07'6510.8
2015-Jul-20 11:31N 52°25' E 003°15'1313.0
2015-Jul-20 10:32N 52°35' E 003°28'1212.4
2015-Jul-20 09:33N 52°44' E 003°41'1511.5
2015-Jul-20 08:14N 52°56' E 003°57'4110.3
2015-Jul-20 04:16N 53°29' E 004°38'912.2
2015-Jul-20 03:33N 53°32' E 004°51'1212.2
2015-Jul-20 02:34N 53°35' E 005°11'1211.9
2015-Jul-20 01:33N 53°39' E 005°30'1111.2
2015-Jul-20 00:33N 53°43' E 005°48'5110.1
2015-Jul-19 19:32N 53°57' E 007°10'1111.7
2015-Jul-19 18:34N 54°00' E 007°29'1211.7
2015-Jul-19 17:33N 54°02' E 007°48'1312.6
2015-Jul-19 16:33N 54°01' E 008°10'1312.8
2015-Jul-19 15:33N 53°58' E 008°31'1110.7
2015-Jul-19 14:34N 53°52' E 008°45'9 8.8
2015-Jul-19 13:34N 53°51' E 008°60'6 5.7
2015-Jul-19 12:33N 53°54' E 009°09'  
Track history (hours):
 
Tides and Currents Weather Stations Pressure Air Temp Water Temp Dewpoint Dewpoint Depression Visibility Wind Speed Wind Dir Waves Ship Positions

Varnadiep

Last reported at 2015-Jul-29 12:24 UTC. Time now 2015-Jul-30 12:12 UTC.
Position N 34°47' W 006°49'.

Length 118 m; draft 7.4 m.

Type: Cargo ship. MMSI: 244729000.

Date/timePositionNaut miles runAvg speedWind from/ knotsBaromVisibWave heightAir tempDewpointWater temp
2015-Jul-29 12:24N 34°47' W 006°49'4911.8
2015-Jul-29 08:15N 34°05' W 007°21'27 0.7
2015-Jul-27 19:27N 33°40' W 007°32'0 0.0
2015-Jul-27 17:17N 33°40' W 007°32'0 0.0
2015-Jul-26 23:18N 33°40' W 007°32'114 2.7
2015-Jul-25 05:09N 35°24' W 008°29'1011.9
2015-Jul-25 04:20N 35°33' W 008°34'2411.9
2015-Jul-25 02:20N 35°55' W 008°46'2212.0
2015-Jul-25 00:33N 36°15' W 008°56'1211.8
2015-Jul-24 23:32N 36°26' W 009°02'1211.0
2015-Jul-24 22:28N 36°33' W 009°14'2411.4
2015-Jul-24 20:22N 36°50' W 009°34'1011.7
2015-Jul-24 19:33N 36°60' W 009°37'1212.2
2015-Jul-24 18:33N 37°11' W 009°40'1212.2
2015-Jul-24 17:33N 37°24' W 009°43'1212.0
2015-Jul-24 16:33N 37°35' W 009°46'1211.8
2015-Jul-24 15:33N 37°47' W 009°51'2512.2
2015-Jul-24 13:32N 38°11' W 009°57'1212.0
2015-Jul-24 12:33N 38°22' W 010°01'1211.9
2015-Jul-24 11:33N 38°34' W 010°04'1211.8
2015-Jul-24 10:33N 38°45' W 010°06'1212.1
2015-Jul-24 09:33N 38°57' W 010°06'1212.0
2015-Jul-24 08:33N 39°09' W 010°06'1111.0
2015-Jul-24 07:33N 39°20' W 010°06'  
2015-Jul-21 02:28N 50°35' E 000°13'1010.6
2015-Jul-21 01:33N 50°37' E 000°27'10 9.7
2015-Jul-21 00:33N 50°42' E 000°41'9 9.5
2015-Jul-20 23:33N 50°47' E 000°53'1110.4
2015-Jul-20 22:33N 50°53' E 001°07'1212.2
2015-Jul-20 21:33N 51°01' E 001°22'1312.9
2015-Jul-20 20:33N 51°09' E 001°37'1211.7
2015-Jul-20 19:33N 51°18' E 001°49'1010.4
2015-Jul-20 18:33N 51°27' E 001°57'10 9.7
2015-Jul-20 17:33N 51°35' E 002°07'6510.8
2015-Jul-20 11:31N 52°25' E 003°15'1313.0
2015-Jul-20 10:32N 52°35' E 003°28'1212.4
2015-Jul-20 09:33N 52°44' E 003°41'1511.5
2015-Jul-20 08:14N 52°56' E 003°57'4110.3
2015-Jul-20 04:16N 53°29' E 004°38'912.2
2015-Jul-20 03:33N 53°32' E 004°51'1212.2
2015-Jul-20 02:34N 53°35' E 005°11'1211.9
2015-Jul-20 01:33N 53°39' E 005°30'1111.2
2015-Jul-20 00:33N 53°43' E 005°48'5110.1
2015-Jul-19 19:32N 53°57' E 007°10'1111.7
2015-Jul-19 18:34N 54°00' E 007°29'1211.7
2015-Jul-19 17:33N 54°02' E 007°48'1312.6
2015-Jul-19 16:33N 54°01' E 008°10'1312.8
2015-Jul-19 15:33N 53°58' E 008°31'1110.7
2015-Jul-19 14:34N 53°52' E 008°45'9 8.8
2015-Jul-19 13:34N 53°51' E 008°60'6 5.7
2015-Jul-19 12:33N 53°54' E 009°09'  

Dump ship's entire track history